createdAt,value
2022-07-30T00:03:07.055Z,17.80
2022-07-30T00:07:17.234Z,17.70
2022-07-30T00:11:28.358Z,17.60
2022-07-30T00:15:37.107Z,17.60
2022-07-30T00:19:46.159Z,17.60
2022-07-30T00:24:01.764Z,17.60
2022-07-30T00:28:12.492Z,17.50
2022-07-30T00:32:21.534Z,17.60
2022-07-30T00:36:30.345Z,17.50
2022-07-30T00:40:39.134Z,17.40
2022-07-30T00:44:49.288Z,17.20
2022-07-30T00:48:58.220Z,17.20
2022-07-30T00:53:07.708Z,17.20
2022-07-30T00:57:16.813Z,17.00
2022-07-30T01:01:27.156Z,16.80
2022-07-30T01:05:36.230Z,16.70
2022-07-30T01:09:48.570Z,16.60
2022-07-30T01:13:59.362Z,16.40
2022-07-30T01:18:16.824Z,16.40
2022-07-30T01:22:58.342Z,16.40
2022-07-30T01:27:17.950Z,16.30
2022-07-30T01:31:32.032Z,16.30
2022-07-30T01:35:44.983Z,16.20
2022-07-30T01:39:58.728Z,16.20
2022-07-30T01:44:13.473Z,16.30
2022-07-30T01:48:27.584Z,16.30
2022-07-30T01:52:43.080Z,16.30
2022-07-30T01:56:59.582Z,16.30
2022-07-30T02:01:12.603Z,16.00
2022-07-30T02:05:23.606Z,16.00
2022-07-30T02:09:38.814Z,15.90
2022-07-30T02:13:53.713Z,15.80
2022-07-30T02:18:10.437Z,15.90
2022-07-30T02:22:24.581Z,15.90
2022-07-30T02:26:39.358Z,15.90
2022-07-30T02:30:53.856Z,15.80
2022-07-30T02:35:12.761Z,15.70
2022-07-30T02:39:23.286Z,15.70
2022-07-30T02:43:35.529Z,15.60
2022-07-30T02:47:47.362Z,15.60
2022-07-30T02:52:00.637Z,15.60
2022-07-30T02:56:12.318Z,15.50
2022-07-30T03:00:24.577Z,15.40
2022-07-30T03:04:34.441Z,15.40
2022-07-30T03:08:46.731Z,15.50
2022-07-30T03:12:56.912Z,15.40
2022-07-30T03:17:07.690Z,15.30
2022-07-30T03:21:18.878Z,15.30
2022-07-30T03:25:30.201Z,15.30
2022-07-30T03:29:39.927Z,15.30
2022-07-30T03:33:49.441Z,15.20
2022-07-30T03:37:59.639Z,15.10
2022-07-30T03:42:10.634Z,15.00
2022-07-30T03:46:20.198Z,14.90
2022-07-30T03:50:31.159Z,14.90
2022-07-30T03:54:40.485Z,14.80
2022-07-30T03:58:50.804Z,14.80
2022-07-30T04:02:59.482Z,14.80
2022-07-30T04:07:08.193Z,14.90
2022-07-30T04:11:16.984Z,14.90
2022-07-30T04:16:37.043Z,14.80
2022-07-30T04:20:02.000Z,14.80
2022-07-30T04:24:12.908Z,14.80
2022-07-30T04:28:22.881Z,14.80
2022-07-30T04:32:34.397Z,14.80
2022-07-30T04:36:44.462Z,14.80
2022-07-30T04:40:53.223Z,14.80
2022-07-30T04:45:02.438Z,14.70
2022-07-30T04:49:14.075Z,14.70
2022-07-30T04:53:23.166Z,14.70
2022-07-30T04:57:33.236Z,14.80
2022-07-30T05:01:44.875Z,14.90
2022-07-30T05:05:57.586Z,14.90
2022-07-30T05:10:07.813Z,14.90
2022-07-30T05:14:16.570Z,15.00
2022-07-30T05:18:25.239Z,15.10
2022-07-30T05:22:35.533Z,14.90
2022-07-30T05:26:44.848Z,14.70
2022-07-30T05:30:54.149Z,14.80
2022-07-30T05:35:03.587Z,14.90
2022-07-30T05:39:13.908Z,14.90
2022-07-30T05:43:22.674Z,15.00
2022-07-30T05:47:31.382Z,15.10
2022-07-30T05:51:40.134Z,15.20
2022-07-30T05:55:50.251Z,15.30
2022-07-30T05:59:58.980Z,15.30
2022-07-30T06:04:07.802Z,15.30
2022-07-30T06:08:16.546Z,15.50
2022-07-30T06:12:26.841Z,15.50
2022-07-30T06:16:35.546Z,15.60
2022-07-30T06:20:44.310Z,15.70
2022-07-30T06:24:53.086Z,15.90
2022-07-30T06:29:03.185Z,16.30
2022-07-30T06:33:12.014Z,16.50
2022-07-30T06:37:20.704Z,16.60
2022-07-30T06:41:50.754Z,16.80
2022-07-30T06:46:01.127Z,16.90
2022-07-30T06:50:11.009Z,16.90
2022-07-30T06:54:20.508Z,17.00
2022-07-30T06:58:29.506Z,17.10
2022-07-30T07:02:39.710Z,17.20
2022-07-30T07:06:48.371Z,17.30
2022-07-30T07:10:57.131Z,17.30
2022-07-30T07:15:06.602Z,17.40
2022-07-30T07:19:59.131Z,17.40
2022-07-30T07:23:45.486Z,17.50
2022-07-30T07:28:12.259Z,17.70
2022-07-30T07:32:22.119Z,17.80
2022-07-30T07:36:32.446Z,17.90
2022-07-30T07:40:41.131Z,18.00
2022-07-30T07:44:49.842Z,18.20
2022-07-30T07:48:58.762Z,18.40
2022-07-30T07:53:08.936Z,18.60
2022-07-30T07:57:17.729Z,18.90
2022-07-30T08:01:29.280Z,19.10
2022-07-30T08:05:53.880Z,19.30
2022-07-30T08:10:09.476Z,19.40
2022-07-30T08:14:18.372Z,19.70
2022-07-30T08:18:27.165Z,20.00
2022-07-30T08:22:36.025Z,20.20
2022-07-30T08:26:46.176Z,20.40
2022-07-30T08:30:56.904Z,20.60
2022-07-30T08:35:09.191Z,20.80
2022-07-30T08:39:18.064Z,21.00
2022-07-30T08:43:28.491Z,21.10
2022-07-30T08:47:39.861Z,21.40
2022-07-30T08:51:48.999Z,21.80
2022-07-30T08:55:58.806Z,22.00
2022-07-30T09:00:11.185Z,22.20
2022-07-30T09:04:20.195Z,22.50
2022-07-30T09:08:29.071Z,22.80
2022-07-30T09:12:43.079Z,22.70
2022-07-30T09:16:58.695Z,22.70
2022-07-30T09:21:17.399Z,23.00
2022-07-30T09:25:37.613Z,23.40
2022-07-30T09:29:50.463Z,23.90
2022-07-30T09:34:00.735Z,24.20
2022-07-30T09:38:10.282Z,24.20
2022-07-30T09:42:21.031Z,24.30
2022-07-30T09:46:43.512Z,24.30
2022-07-30T09:50:57.667Z,24.00
2022-07-30T09:55:07.623Z,24.40
2022-07-30T09:59:35.059Z,24.90
2022-07-30T10:03:46.665Z,24.90
2022-07-30T10:08:02.564Z,24.80
2022-07-30T10:12:15.526Z,24.40
2022-07-30T10:16:29.716Z,23.90
2022-07-30T10:20:38.837Z,23.60
2022-07-30T10:24:53.451Z,23.60
2022-07-30T10:29:03.625Z,23.70
2022-07-30T10:33:36.346Z,24.00
2022-07-30T10:37:48.435Z,24.30
2022-07-30T10:42:11.032Z,24.10
2022-07-30T10:46:30.851Z,24.10
2022-07-30T10:50:52.724Z,24.20
2022-07-30T10:55:01.763Z,24.40
2022-07-30T10:59:14.974Z,24.80
2022-07-30T11:03:40.143Z,25.30
2022-07-30T11:07:50.639Z,25.60
2022-07-30T11:12:06.004Z,25.70
2022-07-30T11:16:17.658Z,25.60
2022-07-30T11:20:28.651Z,25.50
2022-07-30T11:24:45.333Z,25.50
2022-07-30T11:28:54.303Z,25.20
2022-07-30T11:33:33.166Z,25.30
2022-07-30T11:38:05.341Z,25.60
2022-07-30T11:42:36.844Z,25.60
2022-07-30T11:46:50.334Z,25.00
2022-07-30T11:51:04.035Z,24.90
2022-07-30T11:55:12.876Z,24.90
2022-07-30T11:59:22.064Z,25.10
2022-07-30T12:03:32.997Z,25.40
2022-07-30T12:07:43.432Z,25.30
2022-07-30T12:11:52.390Z,25.20
2022-07-30T12:16:01.127Z,25.60
2022-07-30T12:20:18.051Z,25.80
2022-07-30T12:24:28.575Z,25.70
2022-07-30T12:28:37.856Z,25.50
2022-07-30T12:32:47.578Z,25.20
2022-07-30T12:36:57.084Z,25.30
2022-07-30T12:41:07.744Z,25.10
2022-07-30T12:45:28.375Z,24.80
2022-07-30T12:49:48.905Z,24.20
2022-07-30T12:53:59.158Z,23.90
2022-07-30T12:58:09.557Z,24.30
2022-07-30T13:02:33.373Z,24.70
2022-07-30T13:06:43.671Z,24.80
2022-07-30T13:10:59.937Z,24.20
2022-07-30T13:15:18.321Z,23.50
2022-07-30T13:19:28.252Z,23.60
2022-07-30T13:23:37.885Z,23.70
2022-07-30T13:27:46.589Z,24.10
2022-07-30T13:31:56.886Z,24.10
2022-07-30T13:36:06.050Z,24.20
2022-07-30T13:40:14.814Z,24.10
2022-07-30T13:44:23.530Z,24.60
2022-07-30T13:48:34.379Z,24.90
2022-07-30T13:52:43.148Z,25.00
2022-07-30T13:56:51.807Z,25.10
2022-07-30T14:01:00.710Z,25.40
2022-07-30T14:05:11.521Z,25.30
2022-07-30T14:09:20.288Z,25.30
2022-07-30T14:13:29.015Z,25.50
2022-07-30T14:17:37.820Z,25.40
2022-07-30T14:21:48.214Z,25.10
2022-07-30T14:25:56.915Z,24.60
2022-07-30T14:30:08.229Z,24.40
2022-07-30T14:34:17.731Z,24.30
2022-07-30T14:38:27.846Z,23.90
2022-07-30T14:42:37.370Z,24.00
2022-07-30T14:47:02.057Z,23.70
2022-07-30T14:51:16.190Z,23.70
2022-07-30T14:55:30.863Z,24.00
2022-07-30T14:59:39.552Z,24.50
2022-07-30T15:03:48.691Z,24.40
2022-07-30T15:07:57.370Z,24.60
2022-07-30T15:12:10.166Z,24.90
2022-07-30T15:16:19.155Z,25.00
2022-07-30T15:20:27.875Z,25.10
2022-07-30T15:24:36.771Z,25.00
2022-07-30T15:28:46.862Z,24.90
2022-07-30T15:32:55.718Z,25.10
2022-07-30T15:37:05.708Z,24.90
2022-07-30T15:41:14.517Z,24.80
2022-07-30T15:45:25.204Z,24.90
2022-07-30T15:49:34.131Z,24.70
2022-07-30T15:53:44.188Z,24.60
2022-07-30T15:57:52.885Z,24.70
2022-07-30T16:02:03.445Z,24.80
2022-07-30T16:06:12.384Z,24.90
2022-07-30T16:10:21.196Z,25.00
2022-07-30T16:14:30.644Z,25.10
2022-07-30T16:18:40.774Z,24.80
2022-07-30T16:22:49.515Z,24.80
2022-07-30T16:26:58.181Z,25.00
2022-07-30T16:31:07.264Z,24.80
2022-07-30T16:35:17.394Z,24.70
2022-07-30T16:39:26.507Z,24.90
2022-07-30T16:43:35.279Z,24.90
2022-07-30T16:47:44.114Z,25.00
2022-07-30T16:51:54.501Z,24.90
2022-07-30T16:56:03.167Z,24.80
2022-07-30T17:00:14.811Z,24.80
2022-07-30T17:04:23.580Z,24.70
2022-07-30T17:08:33.716Z,24.50
2022-07-30T17:12:42.512Z,24.40
2022-07-30T17:16:59.739Z,24.50
2022-07-30T17:21:08.491Z,24.50
2022-07-30T17:25:18.734Z,24.50
2022-07-30T17:29:27.384Z,24.30
2022-07-30T17:33:36.115Z,24.10
2022-07-30T17:37:44.843Z,24.10
2022-07-30T17:42:00.320Z,24.10
2022-07-30T17:46:11.459Z,24.00
2022-07-30T17:50:20.301Z,23.70
2022-07-30T17:54:29.725Z,23.60
2022-07-30T17:58:40.065Z,23.50
2022-07-30T18:02:48.889Z,23.30
2022-07-30T18:06:57.792Z,23.30
2022-07-30T18:11:09.540Z,23.30
2022-07-30T18:15:22.524Z,23.10
2022-07-30T18:19:31.252Z,23.10
2022-07-30T18:23:40.162Z,23.10
2022-07-30T18:27:49.224Z,22.90
2022-07-30T18:31:59.547Z,22.70
2022-07-30T18:36:11.255Z,22.50
2022-07-30T18:40:23.978Z,22.40
2022-07-30T18:44:33.072Z,22.20
2022-07-30T18:48:43.732Z,22.10
2022-07-30T18:52:52.905Z,21.90
2022-07-30T18:57:01.666Z,21.80
2022-07-30T19:01:10.494Z,21.60
2022-07-30T19:05:20.690Z,21.50
2022-07-30T19:09:29.421Z,21.50
2022-07-30T19:13:40.115Z,21.40
2022-07-30T19:17:50.288Z,21.40
2022-07-30T19:22:00.849Z,21.30
2022-07-30T19:26:10.128Z,21.20
2022-07-30T19:30:18.942Z,21.10
2022-07-30T19:34:27.740Z,21.00
2022-07-30T19:38:42.162Z,20.90
2022-07-30T19:42:55.611Z,20.80
2022-07-30T19:47:05.106Z,20.60
2022-07-30T19:51:20.503Z,20.50
2022-07-30T19:55:35.705Z,20.50
2022-07-30T19:59:59.879Z,20.30
2022-07-30T20:04:14.399Z,20.30
2022-07-30T20:08:24.681Z,20.20
2022-07-30T20:12:35.208Z,20.10
2022-07-30T20:16:44.023Z,20.00
2022-07-30T20:20:54.264Z,19.90
2022-07-30T20:25:07.573Z,19.70
2022-07-30T20:29:19.545Z,19.60
2022-07-30T20:33:35.965Z,19.50
2022-07-30T20:37:55.057Z,19.40
2022-07-30T20:42:12.185Z,19.30
2022-07-30T20:46:23.793Z,19.30
2022-07-30T20:50:32.977Z,19.10
2022-07-30T20:54:43.845Z,19.10
2022-07-30T20:58:53.792Z,19.00
2022-07-30T21:03:06.882Z,19.00
2022-07-30T21:07:22.484Z,18.90
2022-07-30T21:11:50.460Z,18.90
2022-07-30T21:16:02.842Z,18.80
2022-07-30T21:20:13.860Z,18.80
2022-07-30T21:24:24.619Z,18.70
2022-07-30T21:28:35.860Z,18.70
2022-07-30T21:32:44.984Z,18.70
2022-07-30T21:36:55.454Z,18.70
2022-07-30T21:41:04.385Z,18.70
2022-07-30T21:45:20.259Z,18.70
2022-07-30T21:49:31.644Z,18.70
2022-07-30T21:53:45.888Z,18.60
2022-07-30T21:57:55.198Z,18.50
2022-07-30T22:02:05.107Z,18.50
2022-07-30T22:06:25.168Z,18.50
2022-07-30T22:10:35.327Z,18.40
2022-07-30T22:14:44.753Z,18.40
2022-07-30T22:18:56.249Z,18.40
2022-07-30T22:23:05.983Z,18.40
2022-07-30T22:27:16.100Z,18.40
2022-07-30T22:31:24.988Z,18.30
2022-07-30T22:35:40.046Z,18.20
2022-07-30T22:39:55.558Z,18.20
2022-07-30T22:44:12.955Z,18.20
2022-07-30T22:48:26.374Z,18.10
2022-07-30T22:52:39.233Z,18.10
2022-07-30T22:56:48.040Z,18.10
2022-07-30T23:00:58.259Z,18.00
2022-07-30T23:05:07.720Z,18.00
2022-07-30T23:09:16.445Z,18.00
2022-07-30T23:13:25.167Z,17.90
2022-07-30T23:17:35.711Z,18.00
2022-07-30T23:21:48.834Z,18.00
2022-07-30T23:25:58.799Z,18.00
2022-07-30T23:30:10.641Z,18.00
2022-07-30T23:34:21.897Z,18.10
2022-07-30T23:38:30.981Z,18.10
2022-07-30T23:42:41.069Z,18.10
2022-07-30T23:46:50.125Z,18.10
2022-07-30T23:51:01.158Z,18.20
2022-07-30T23:55:12.006Z,18.20
2022-07-30T23:59:20.831Z,18.30
